createdAt,value
2018-02-10T00:00:58.955Z,1012.24
2018-02-10T00:01:58.944Z,1012.24
2018-02-10T00:02:58.932Z,1012.24
2018-02-10T00:03:58.923Z,1012.28
2018-02-10T00:04:58.912Z,1012.23
2018-02-10T00:05:58.902Z,1012.24
2018-02-10T00:06:58.891Z,1012.27
2018-02-10T00:07:58.883Z,1012.27
2018-02-10T00:08:58.871Z,1012.30
2018-02-10T00:09:58.860Z,1012.30
2018-02-10T00:10:58.849Z,1012.32
2018-02-10T00:11:58.838Z,1012.34
2018-02-10T00:12:58.832Z,1012.32
2018-02-10T00:13:58.820Z,1012.27
2018-02-10T00:14:58.805Z,1012.33
2018-02-10T00:15:58.804Z,1012.25
2018-02-10T00:16:58.787Z,1012.27
2018-02-10T00:17:58.777Z,1012.26
2018-02-10T00:18:58.768Z,1012.30
2018-02-10T00:19:58.758Z,1012.28
2018-02-10T00:20:58.744Z,1012.31
2018-02-10T00:21:58.734Z,1012.30
2018-02-10T00:22:58.724Z,1012.31
2018-02-10T00:23:58.713Z,1012.36
2018-02-10T00:24:58.704Z,1012.36
2018-02-10T00:25:58.694Z,1012.35
2018-02-10T00:26:58.679Z,1012.35
2018-02-10T00:27:58.670Z,1012.36
2018-02-10T00:28:58.670Z,1012.37
2018-02-10T00:29:58.652Z,1012.33
2018-02-10T00:30:58.640Z,1012.37
2018-02-10T00:31:58.633Z,1012.37
2018-02-10T00:32:58.617Z,1012.38
2018-02-10T00:33:58.612Z,1012.41
2018-02-10T00:34:58.598Z,1012.35
2018-02-10T00:35:58.587Z,1012.36
2018-02-10T00:36:58.578Z,1012.35
2018-02-10T00:37:58.568Z,1012.34
2018-02-10T00:38:58.557Z,1012.32
2018-02-10T00:39:58.545Z,1012.35
2018-02-10T00:40:58.542Z,1012.36
2018-02-10T00:41:58.525Z,1012.35
2018-02-10T00:42:58.559Z,1012.39
2018-02-10T00:43:58.507Z,1012.37
2018-02-10T00:44:58.516Z,1012.35
2018-02-10T00:45:58.486Z,1012.36
2018-02-10T00:46:58.473Z,1012.35
2018-02-10T00:47:58.465Z,1012.35
2018-02-10T00:48:58.482Z,1012.37
2018-02-10T00:49:58.474Z,1012.35
2018-02-10T00:50:58.461Z,1012.38
2018-02-10T00:51:58.463Z,1012.37
2018-02-10T00:52:58.426Z,1012.39
2018-02-10T00:53:58.401Z,1012.39
2018-02-10T00:54:58.390Z,1012.35
2018-02-10T00:55:58.382Z,1012.42
2018-02-10T00:56:58.368Z,1012.41
2018-02-10T00:57:58.366Z,1012.36
2018-02-10T00:58:58.352Z,1012.38
2018-02-10T00:59:58.384Z,1012.39
2018-02-10T01:00:58.328Z,1012.41
2018-02-10T01:01:58.319Z,1012.38
2018-02-10T01:02:58.310Z,1012.38
2018-02-10T01:03:58.302Z,1012.41
2018-02-10T01:04:58.286Z,1012.43
2018-02-10T01:05:58.283Z,1012.39
2018-02-10T01:06:58.268Z,1012.38
2018-02-10T01:07:58.260Z,1012.39
2018-02-10T01:08:58.248Z,1012.39
2018-02-10T01:09:58.238Z,1012.39
2018-02-10T01:10:58.224Z,1012.40
2018-02-10T01:11:58.228Z,1012.38
2018-02-10T01:12:58.207Z,1012.44
2018-02-10T01:13:58.198Z,1012.40
2018-02-10T01:14:58.186Z,1012.42
2018-02-10T01:15:58.175Z,1012.36
2018-02-10T01:16:58.165Z,1012.40
2018-02-10T01:17:58.156Z,1012.45
2018-02-10T01:18:58.145Z,1012.39
2018-02-10T01:19:58.136Z,1012.42
2018-02-10T01:20:58.129Z,1012.39
2018-02-10T01:21:58.113Z,1012.33
2018-02-10T01:22:58.109Z,1012.35
2018-02-10T01:23:58.096Z,1012.40
2018-02-10T01:24:58.085Z,1012.35
2018-02-10T01:25:58.076Z,1012.35
2018-02-10T01:26:58.063Z,1012.38
2018-02-10T01:27:58.048Z,1012.38
2018-02-10T01:28:58.042Z,1012.35
2018-02-10T01:29:58.033Z,1012.38
2018-02-10T01:30:58.023Z,1012.36
2018-02-10T01:31:58.012Z,1012.38
2018-02-10T01:32:57.999Z,1012.36
2018-02-10T01:33:57.990Z,1012.36
2018-02-10T01:34:57.982Z,1012.38
2018-02-10T01:35:57.970Z,1012.38
2018-02-10T01:36:57.959Z,1012.37
2018-02-10T01:37:57.953Z,1012.37
2018-02-10T01:38:57.940Z,1012.38
2018-02-10T01:39:57.946Z,1012.35
2018-02-10T01:40:57.919Z,1012.36
2018-02-10T01:41:57.909Z,1012.37
2018-02-10T01:42:57.898Z,1012.38
2018-02-10T01:43:57.888Z,1012.33
2018-02-10T01:44:57.881Z,1012.33
2018-02-10T01:45:57.868Z,1012.34
2018-02-10T01:46:57.855Z,1012.33
2018-02-10T01:47:57.848Z,1012.34
2018-02-10T01:48:57.842Z,1012.35
2018-02-10T01:49:57.828Z,1012.34
2018-02-10T01:50:57.817Z,1012.34
2018-02-10T01:51:57.808Z,1012.36
2018-02-10T01:52:57.796Z,1012.35
2018-02-10T01:53:57.788Z,1012.39
2018-02-10T01:54:57.777Z,1012.35
2018-02-10T01:55:57.767Z,1012.34
2018-02-10T01:56:57.761Z,1012.40
2018-02-10T01:57:57.748Z,1012.36
2018-02-10T01:58:57.736Z,1012.36
2018-02-10T01:59:57.725Z,1012.37
2018-02-10T02:00:57.713Z,1012.36
2018-02-10T02:01:57.707Z,1012.32
2018-02-10T02:02:57.693Z,1012.31
2018-02-10T02:03:57.684Z,1012.35
2018-02-10T02:04:57.674Z,1012.33
2018-02-10T02:05:57.666Z,1012.34
2018-02-10T02:06:57.652Z,1012.35
2018-02-10T02:07:57.643Z,1012.33
2018-02-10T02:08:57.638Z,1012.31
2018-02-10T02:09:57.624Z,1012.30
2018-02-10T02:10:57.613Z,1012.31
2018-02-10T02:11:57.601Z,1012.31
2018-02-10T02:12:57.590Z,1012.31
2018-02-10T02:13:57.583Z,1012.34
2018-02-10T02:14:57.569Z,1012.33
2018-02-10T02:15:57.560Z,1012.28
2018-02-10T02:16:57.550Z,1012.36
2018-02-10T02:17:57.539Z,1012.36
2018-02-10T02:18:57.527Z,1012.32
2018-02-10T02:19:57.522Z,1012.32
2018-02-10T02:20:57.514Z,1012.34
2018-02-10T02:21:57.497Z,1012.34
2018-02-10T02:22:57.489Z,1012.35
2018-02-10T02:23:57.478Z,1012.32
2018-02-10T02:24:57.473Z,1012.34
2018-02-10T02:25:57.456Z,1012.32
2018-02-10T02:26:57.446Z,1012.33
2018-02-10T02:27:57.436Z,1012.35
2018-02-10T02:28:57.426Z,1012.34
2018-02-10T02:29:57.415Z,1012.33
2018-02-10T02:30:57.405Z,1012.31
2018-02-10T02:31:57.395Z,1012.31
2018-02-10T02:32:57.387Z,1012.25
2018-02-10T02:33:57.374Z,1012.27
2018-02-10T02:34:57.362Z,1012.23
2018-02-10T02:35:57.353Z,1012.24
2018-02-10T02:36:57.347Z,1012.21
2018-02-10T02:37:57.334Z,1012.25
2018-02-10T02:38:57.328Z,1012.26
2018-02-10T02:39:57.314Z,1012.21
2018-02-10T02:40:57.302Z,1012.23
2018-02-10T02:41:57.292Z,1012.24
2018-02-10T02:42:57.280Z,1012.27
2018-02-10T02:43:57.272Z,1012.23
2018-02-10T02:44:57.267Z,1012.21
2018-02-10T02:45:57.250Z,1012.19
2018-02-10T02:46:57.239Z,1012.16
2018-02-10T02:47:57.229Z,1012.14
2018-02-10T02:48:57.220Z,1012.12
2018-02-10T02:49:57.209Z,1012.07
2018-02-10T02:50:57.197Z,1012.10
2018-02-10T02:51:57.185Z,1012.06
2018-02-10T02:52:57.183Z,1012.07
2018-02-10T02:53:57.171Z,1012.12
2018-02-10T02:54:57.152Z,1012.08
2018-02-10T02:55:57.145Z,1012.11
2018-02-10T02:56:57.141Z,1012.07
2018-02-10T02:57:57.124Z,1012.08
2018-02-10T02:58:57.113Z,1012.09
2018-02-10T02:59:57.105Z,1012.05
2018-02-10T03:00:57.094Z,1012.06
2018-02-10T03:01:57.083Z,1012.06
2018-02-10T03:02:57.075Z,1012.04
2018-02-10T03:03:57.064Z,1012.02
2018-02-10T03:04:57.050Z,1012.02
2018-02-10T03:05:57.041Z,1012.04
2018-02-10T03:06:57.031Z,1012.00
2018-02-10T03:07:57.018Z,1011.99
2018-02-10T03:08:57.011Z,1012.00
2018-02-10T03:09:56.997Z,1011.98
2018-02-10T03:10:56.986Z,1011.98
2018-02-10T03:11:56.979Z,1012.00
2018-02-10T03:12:56.964Z,1012.03
2018-02-10T03:13:56.956Z,1012.00
2018-02-10T03:14:56.945Z,1012.01
2018-02-10T03:15:56.935Z,1011.99
2018-02-10T03:16:56.926Z,1011.97
2018-02-10T03:17:56.921Z,1011.97
2018-02-10T03:18:56.906Z,1011.97
2018-02-10T03:19:56.897Z,1011.97
2018-02-10T03:20:56.883Z,1011.95
2018-02-10T03:21:56.871Z,1011.95
2018-02-10T03:22:56.862Z,1011.97
2018-02-10T03:23:56.852Z,1011.93
2018-02-10T03:24:56.843Z,1011.98
2018-02-10T03:25:56.832Z,1011.98
2018-02-10T03:26:56.823Z,1011.95
2018-02-10T03:27:56.807Z,1011.94
2018-02-10T03:28:56.808Z,1011.96
2018-02-10T03:29:56.790Z,1011.87
2018-02-10T03:30:56.778Z,1011.91
2018-02-10T03:31:56.766Z,1011.91
2018-02-10T03:32:56.761Z,1011.89
2018-02-10T03:33:56.747Z,1011.91
2018-02-10T03:34:56.734Z,1011.94
2018-02-10T03:35:56.724Z,1011.93
2018-02-10T03:36:56.714Z,1011.92
2018-02-10T03:37:56.702Z,1011.91
2018-02-10T03:38:56.693Z,1011.91
2018-02-10T03:39:56.683Z,1011.93
2018-02-10T03:40:56.672Z,1011.96
2018-02-10T03:41:56.663Z,1011.97
2018-02-10T03:42:56.651Z,1011.98
2018-02-10T03:43:56.640Z,1012.00
2018-02-10T03:44:56.630Z,1012.06
2018-02-10T03:45:56.623Z,1012.03
2018-02-10T03:46:56.607Z,1012.06
2018-02-10T03:47:56.601Z,1012.04
2018-02-10T03:48:56.590Z,1012.05
2018-02-10T03:49:56.584Z,1012.05
2018-02-10T03:50:56.573Z,1012.02
2018-02-10T03:51:56.562Z,1012.02
2018-02-10T03:52:56.546Z,1012.06
2018-02-10T03:53:56.538Z,1012.00
2018-02-10T03:54:56.525Z,1012.05
2018-02-10T03:55:56.518Z,1012.03
2018-02-10T03:56:56.507Z,1012.03
2018-02-10T03:57:56.517Z,1012.04
2018-02-10T03:58:56.484Z,1012.03
2018-02-10T03:59:56.476Z,1012.06
2018-02-10T04:00:56.464Z,1012.07
2018-02-10T04:01:56.454Z,1012.05
2018-02-10T04:02:56.448Z,1012.04
2018-02-10T04:03:56.435Z,1012.05
2018-02-10T04:04:56.425Z,1012.04
2018-02-10T04:05:56.413Z,1012.07
2018-02-10T04:06:56.401Z,1012.05
2018-02-10T04:07:56.393Z,1012.10
2018-02-10T04:08:56.382Z,1012.06
2018-02-10T04:09:56.372Z,1012.07
2018-02-10T04:10:56.361Z,1012.09
2018-02-10T04:11:56.350Z,1012.12
2018-02-10T04:12:56.341Z,1012.07
2018-02-10T04:13:56.339Z,1012.12
2018-02-10T04:14:56.320Z,1012.11
2018-02-10T04:15:56.309Z,1012.09
2018-02-10T04:16:56.305Z,1012.07
2018-02-10T04:17:56.288Z,1012.10
2018-02-10T04:18:56.280Z,1012.08
2018-02-10T04:19:56.270Z,1012.11
2018-02-10T04:20:56.260Z,1012.09
2018-02-10T04:21:56.249Z,1012.07
2018-02-10T04:22:56.237Z,1012.05
2018-02-10T04:23:56.227Z,1012.06
2018-02-10T04:24:56.219Z,1012.04
2018-02-10T04:25:56.208Z,1012.01
2018-02-10T04:26:56.202Z,1011.99
2018-02-10T04:27:56.186Z,1012.00
2018-02-10T04:28:56.178Z,1012.00
2018-02-10T04:29:56.168Z,1011.98
2018-02-10T04:30:56.155Z,1011.98
2018-02-10T04:31:56.146Z,1011.98
2018-02-10T04:32:56.142Z,1011.98
2018-02-10T04:33:56.126Z,1011.96
2018-02-10T04:34:56.115Z,1011.97
2018-02-10T04:35:56.114Z,1011.94
2018-02-10T04:36:56.094Z,1011.95
2018-02-10T04:37:56.087Z,1011.93
2018-02-10T04:38:56.075Z,1011.97
2018-02-10T04:39:56.063Z,1011.94
2018-02-10T04:40:56.056Z,1011.94
2018-02-10T04:41:56.046Z,1011.92
2018-02-10T04:42:56.032Z,1011.96
2018-02-10T04:43:56.024Z,1011.94
2018-02-10T04:44:56.017Z,1011.99
2018-02-10T04:45:56.002Z,1011.97
2018-02-10T04:46:56.008Z,1011.97
2018-02-10T04:47:55.985Z,1011.94
2018-02-10T04:48:55.974Z,1011.96
2018-02-10T04:49:55.963Z,1011.97
2018-02-10T04:50:55.954Z,1011.99
2018-02-10T04:51:55.942Z,1012.01
2018-02-10T04:52:55.938Z,1012.03
2018-02-10T04:53:55.921Z,1012.03
2018-02-10T04:54:55.912Z,1011.99
2018-02-10T04:55:55.903Z,1012.01
2018-02-10T04:56:55.895Z,1012.04
2018-02-10T04:57:55.882Z,1012.02
2018-02-10T04:58:55.875Z,1011.99
2018-02-10T04:59:55.862Z,1011.98
2018-02-10T05:00:55.851Z,1011.99
2018-02-10T05:01:55.843Z,1011.97
2018-02-10T05:02:55.832Z,1011.99
2018-02-10T05:03:55.823Z,1012.00
2018-02-10T05:04:55.813Z,1012.01
2018-02-10T05:05:55.803Z,1011.98
2018-02-10T05:06:55.787Z,1011.99
2018-02-10T05:07:55.784Z,1011.99
2018-02-10T05:08:55.769Z,1012.02
2018-02-10T05:09:55.759Z,1012.01
2018-02-10T05:10:55.746Z,1012.02
2018-02-10T05:11:55.738Z,1012.03
2018-02-10T05:12:55.730Z,1012.03
2018-02-10T05:13:55.715Z,1012.02
2018-02-10T05:14:55.736Z,1012.01
2018-02-10T05:15:55.698Z,1012.03
2018-02-10T05:16:55.687Z,1011.98
2018-02-10T05:17:55.676Z,1011.99
2018-02-10T05:18:55.666Z,1012.01
2018-02-10T05:19:55.657Z,1012.00
2018-02-10T05:20:55.652Z,1011.99
2018-02-10T05:21:55.634Z,1012.03
2018-02-10T05:22:55.624Z,1012.04
2018-02-10T05:23:55.617Z,1012.03
2018-02-10T05:24:55.607Z,1012.06
2018-02-10T05:25:55.593Z,1012.06
2018-02-10T05:26:55.582Z,1012.08
2018-02-10T05:27:55.579Z,1012.03
2018-02-10T05:28:55.562Z,1012.08
2018-02-10T05:29:55.555Z,1012.07
2018-02-10T05:30:55.543Z,1012.05
2018-02-10T05:31:55.531Z,1012.05
2018-02-10T05:32:55.526Z,1012.09
2018-02-10T05:33:55.513Z,1012.09
2018-02-10T05:34:55.510Z,1012.10
2018-02-10T05:35:55.493Z,1012.08
2018-02-10T05:36:55.482Z,1012.11
2018-02-10T05:37:55.478Z,1012.09
2018-02-10T05:38:55.459Z,1012.11
2018-02-10T05:39:55.457Z,1012.18
2018-02-10T05:40:55.446Z,1012.16
2018-02-10T05:41:55.445Z,1012.14
2018-02-10T05:42:55.425Z,1012.16
2018-02-10T05:43:55.412Z,1012.17
2018-02-10T05:44:55.400Z,1012.17
2018-02-10T05:45:55.393Z,1012.17
2018-02-10T05:46:55.381Z,1012.13
2018-02-10T05:47:55.372Z,1012.17
2018-02-10T05:48:55.378Z,1012.15
2018-02-10T05:49:55.349Z,1012.17
2018-02-10T05:50:55.339Z,1012.17
2018-02-10T05:51:55.338Z,1012.20
2018-02-10T05:52:55.315Z,1012.22
2018-02-10T05:53:55.310Z,1012.22
2018-02-10T05:54:55.300Z,1012.26
2018-02-10T05:55:55.287Z,1012.28
2018-02-10T05:56:55.280Z,1012.26
2018-02-10T05:57:55.268Z,1012.29
2018-02-10T05:58:55.259Z,1012.30
2018-02-10T05:59:55.248Z,1012.28
2018-02-10T06:00:55.240Z,1012.31
2018-02-10T06:01:55.228Z,1012.31
2018-02-10T06:02:55.222Z,1012.33
2018-02-10T06:03:55.204Z,1012.29
2018-02-10T06:04:55.199Z,1012.31
2018-02-10T06:05:55.189Z,1012.31
2018-02-10T06:06:55.175Z,1012.29
2018-02-10T06:07:55.166Z,1012.29
2018-02-10T06:08:55.162Z,1012.30
2018-02-10T06:09:55.147Z,1012.31
2018-02-10T06:10:55.136Z,1012.31
2018-02-10T06:11:55.126Z,1012.35
2018-02-10T06:12:55.116Z,1012.35
2018-02-10T06:13:55.104Z,1012.34
2018-02-10T06:14:55.093Z,1012.39
2018-02-10T06:15:55.084Z,1012.39
2018-02-10T06:16:55.079Z,1012.45
2018-02-10T06:17:55.065Z,1012.42
2018-02-10T06:18:55.060Z,1012.46
2018-02-10T06:19:55.043Z,1012.46
2018-02-10T06:20:55.044Z,1012.46
2018-02-10T06:21:55.029Z,1012.50
2018-02-10T06:22:55.013Z,1012.52
2018-02-10T06:23:55.004Z,1012.49
2018-02-10T06:24:54.995Z,1012.47
2018-02-10T06:25:54.981Z,1012.49
2018-02-10T06:26:54.977Z,1012.44
2018-02-10T06:27:54.995Z,1012.48
2018-02-10T06:28:54.951Z,1012.49
2018-02-10T06:29:54.975Z,1012.45
2018-02-10T06:30:54.937Z,1012.44
2018-02-10T06:31:54.918Z,1012.47
2018-02-10T06:32:54.913Z,1012.47
2018-02-10T06:33:54.902Z,1012.43
2018-02-10T06:34:54.889Z,1012.43
2018-02-10T06:35:54.879Z,1012.39
2018-02-10T06:36:54.872Z,1012.41
2018-02-10T06:37:54.859Z,1012.41
2018-02-10T06:38:54.848Z,1012.42
2018-02-10T06:39:54.839Z,1012.47
2018-02-10T06:40:54.837Z,1012.46
2018-02-10T06:41:54.818Z,1012.47
2018-02-10T06:42:54.807Z,1012.53
2018-02-10T06:43:54.799Z,1012.49
2018-02-10T06:44:54.788Z,1012.51
2018-02-10T06:45:54.781Z,1012.50
2018-02-10T06:46:54.768Z,1012.54
2018-02-10T06:47:54.757Z,1012.50
2018-02-10T06:48:54.751Z,1012.53
2018-02-10T06:49:54.738Z,1012.54
2018-02-10T06:50:54.730Z,1012.55
2018-02-10T06:51:54.718Z,1012.53
2018-02-10T06:52:54.708Z,1012.56
2018-02-10T06:53:54.695Z,1012.56
2018-02-10T06:54:54.691Z,1012.53
2018-02-10T06:55:54.684Z,1012.57
2018-02-10T06:56:54.669Z,1012.56
2018-02-10T06:57:54.657Z,1012.58
2018-02-10T06:58:54.647Z,1012.56
2018-02-10T06:59:54.636Z,1012.57
2018-02-10T07:00:54.627Z,1012.60
2018-02-10T07:01:54.619Z,1012.61
2018-02-10T07:02:54.608Z,1012.64
2018-02-10T07:03:54.598Z,1012.63
2018-02-10T07:04:54.589Z,1012.64
2018-02-10T07:05:54.581Z,1012.63
2018-02-10T07:06:54.566Z,1012.69
2018-02-10T07:07:54.560Z,1012.68
2018-02-10T07:08:54.548Z,1012.68
2018-02-10T07:09:54.537Z,1012.66
2018-02-10T07:10:54.526Z,1012.62
2018-02-10T07:11:54.524Z,1012.59
2018-02-10T07:12:54.509Z,1012.59
2018-02-10T07:13:54.497Z,1012.58
2018-02-10T07:14:54.492Z,1012.61
2018-02-10T07:15:54.479Z,1012.59
2018-02-10T07:16:54.467Z,1012.59
2018-02-10T07:17:54.459Z,1012.59
2018-02-10T07:18:54.447Z,1012.57
2018-02-10T07:19:54.437Z,1012.59
2018-02-10T07:20:54.429Z,1012.57
2018-02-10T07:21:54.419Z,1012.56
2018-02-10T07:22:54.409Z,1012.58
2018-02-10T07:23:54.400Z,1012.59
2018-02-10T07:24:54.388Z,1012.59
2018-02-10T07:25:54.384Z,1012.60
2018-02-10T07:26:54.368Z,1012.54
2018-02-10T07:27:54.359Z,1012.61
2018-02-10T07:28:54.349Z,1012.60
2018-02-10T07:29:54.341Z,1012.59
2018-02-10T07:30:54.328Z,1012.59
2018-02-10T07:31:54.322Z,1012.53
2018-02-10T07:32:54.310Z,1012.55
2018-02-10T07:33:54.336Z,1012.58
2018-02-10T07:34:54.290Z,1012.56
2018-02-10T07:35:54.280Z,1012.62
2018-02-10T07:36:54.269Z,1012.62
2018-02-10T07:37:54.260Z,1012.66
2018-02-10T07:38:54.250Z,1012.70
2018-02-10T07:39:54.239Z,1012.70
2018-02-10T07:40:54.236Z,1012.71
2018-02-10T07:41:54.225Z,1012.70
2018-02-10T07:42:54.211Z,1012.72
2018-02-10T07:43:54.200Z,1012.71
2018-02-10T07:44:54.191Z,1012.72
2018-02-10T07:45:54.181Z,1012.75
2018-02-10T07:46:54.185Z,1012.76
2018-02-10T07:47:54.161Z,1012.81
2018-02-10T07:48:54.151Z,1012.82
2018-02-10T07:49:54.149Z,1012.77
2018-02-10T07:50:54.134Z,1012.77
2018-02-10T07:51:54.123Z,1012.75
2018-02-10T07:52:54.130Z,1012.76
2018-02-10T07:53:54.101Z,1012.76
2018-02-10T07:54:54.092Z,1012.74
2018-02-10T07:55:54.083Z,1012.74
2018-02-10T07:56:54.073Z,1012.75
2018-02-10T07:57:54.068Z,1012.73
2018-02-10T07:58:54.052Z,1012.77
2018-02-10T07:59:54.097Z,1012.76
2018-02-10T08:00:54.035Z,1012.76
2018-02-10T08:01:54.023Z,1012.79
2018-02-10T08:02:54.015Z,1012.80
2018-02-10T08:03:54.006Z,1012.83
2018-02-10T08:04:53.996Z,1012.86
2018-02-10T08:05:53.984Z,1012.83
2018-02-10T08:06:53.972Z,1012.85
2018-02-10T08:07:53.965Z,1012.85
2018-02-10T08:08:53.969Z,1012.83
2018-02-10T08:09:53.947Z,1012.82
2018-02-10T08:10:53.936Z,1012.82
2018-02-10T08:11:53.925Z,1012.84
2018-02-10T08:12:53.919Z,1012.86
2018-02-10T08:13:53.907Z,1012.82
2018-02-10T08:14:53.896Z,1012.87
2018-02-10T08:15:53.887Z,1012.88
2018-02-10T08:16:53.881Z,1012.89
2018-02-10T08:17:53.867Z,1012.89
2018-02-10T08:18:53.859Z,1012.84
2018-02-10T08:19:53.849Z,1012.86
2018-02-10T08:20:53.836Z,1012.86
2018-02-10T08:21:53.832Z,1012.88
2018-02-10T08:22:53.816Z,1012.88
2018-02-10T08:23:53.810Z,1012.89
2018-02-10T08:24:53.817Z,1012.88
2018-02-10T08:25:53.792Z,1012.87
2018-02-10T08:26:53.782Z,1012.86
2018-02-10T08:27:53.772Z,1012.82
2018-02-10T08:28:53.761Z,1012.84
2018-02-10T08:29:53.752Z,1012.77
2018-02-10T08:30:53.743Z,1012.80
2018-02-10T08:31:53.738Z,1012.79
2018-02-10T08:32:53.725Z,1012.79
2018-02-10T08:33:53.712Z,1012.80
2018-02-10T08:34:53.704Z,1012.81
2018-02-10T08:35:53.695Z,1012.78
2018-02-10T08:36:53.688Z,1012.80
2018-02-10T08:37:53.675Z,1012.79
2018-02-10T08:38:53.664Z,1012.82
2018-02-10T08:39:53.656Z,1012.80
2018-02-10T08:40:53.652Z,1012.79
2018-02-10T08:41:53.635Z,1012.82
2018-02-10T08:42:53.630Z,1012.77
2018-02-10T08:43:53.616Z,1012.77
2018-02-10T08:44:53.607Z,1012.77
2018-02-10T08:45:53.598Z,1012.76
2018-02-10T08:46:53.586Z,1012.78
2018-02-10T08:47:53.581Z,1012.74
2018-02-10T08:48:53.568Z,1012.77
2018-02-10T08:49:53.559Z,1012.76
2018-02-10T08:50:53.562Z,1012.74
2018-02-10T08:51:53.538Z,1012.72
2018-02-10T08:52:53.529Z,1012.73
2018-02-10T08:53:53.520Z,1012.73
2018-02-10T08:54:53.512Z,1012.78
2018-02-10T08:55:53.500Z,1012.72
2018-02-10T08:56:53.492Z,1012.77
2018-02-10T08:57:53.481Z,1012.75
2018-02-10T08:58:53.473Z,1012.73
2018-02-10T08:59:53.509Z,1012.73
2018-02-10T09:00:53.462Z,1012.73
2018-02-10T09:01:53.443Z,1012.71
2018-02-10T09:02:53.435Z,1012.71
2018-02-10T09:03:53.423Z,1012.71
2018-02-10T09:04:53.412Z,1012.73
2018-02-10T09:05:53.406Z,1012.72
2018-02-10T09:06:53.395Z,1012.74
2018-02-10T09:07:53.385Z,1012.72
2018-02-10T09:08:53.376Z,1012.76
2018-02-10T09:09:53.370Z,1012.68
2018-02-10T09:10:53.357Z,1012.74
2018-02-10T09:11:53.349Z,1012.74
2018-02-10T09:12:53.338Z,1012.75
2018-02-10T09:13:53.332Z,1012.75
2018-02-10T09:14:53.319Z,1012.73
2018-02-10T09:15:53.311Z,1012.76
2018-02-10T09:16:53.303Z,1012.80
2018-02-10T09:17:53.289Z,1012.78
2018-02-10T09:18:53.284Z,1012.81
2018-02-10T09:19:53.272Z,1012.82
2018-02-10T09:20:53.261Z,1012.77
2018-02-10T09:21:53.254Z,1012.79
2018-02-10T09:22:53.246Z,1012.79
2018-02-10T09:23:53.236Z,1012.75
2018-02-10T09:24:53.230Z,1012.77
2018-02-10T09:25:53.232Z,1012.77
2018-02-10T09:26:53.213Z,1012.81
2018-02-10T09:27:53.197Z,1012.82
2018-02-10T09:28:53.190Z,1012.81
2018-02-10T09:29:53.181Z,1012.81
2018-02-10T09:30:53.169Z,1012.78
2018-02-10T09:31:53.162Z,1012.79
2018-02-10T09:32:53.151Z,1012.77
2018-02-10T09:33:53.149Z,1012.74
2018-02-10T09:34:53.134Z,1012.77
2018-02-10T09:35:53.129Z,1012.74
2018-02-10T09:36:53.114Z,1012.77
2018-02-10T09:37:53.107Z,1012.74
2018-02-10T09:38:53.102Z,1012.75
2018-02-10T09:39:53.122Z,1012.75
2018-02-10T09:40:53.079Z,1012.76
2018-02-10T09:41:53.070Z,1012.80
2018-02-10T09:42:53.058Z,1012.75
2018-02-10T09:43:53.051Z,1012.76
2018-02-10T09:44:53.042Z,1012.77
2018-02-10T09:45:53.035Z,1012.74
2018-02-10T09:46:53.029Z,1012.72
2018-02-10T09:47:53.015Z,1012.68
2018-02-10T09:48:53.007Z,1012.70
2018-02-10T09:49:52.999Z,1012.66
2018-02-10T09:50:52.989Z,1012.67
2018-02-10T09:51:52.979Z,1012.65
2018-02-10T09:52:52.971Z,1012.63
2018-02-10T09:53:52.964Z,1012.65
2018-02-10T09:54:52.953Z,1012.62
2018-02-10T09:55:52.944Z,1012.63
2018-02-10T09:56:52.940Z,1012.62
2018-02-10T09:57:52.923Z,1012.64
2018-02-10T09:58:52.917Z,1012.64
2018-02-10T09:59:52.910Z,1012.65
2018-02-10T10:00:52.900Z,1012.64
2018-02-10T10:01:52.893Z,1012.65
2018-02-10T10:02:52.882Z,1012.61
2018-02-10T10:03:52.881Z,1012.61
2018-02-10T10:04:52.863Z,1012.65
2018-02-10T10:05:52.855Z,1012.58
2018-02-10T10:06:52.846Z,1012.59
2018-02-10T10:07:52.837Z,1012.60
2018-02-10T10:08:52.829Z,1012.61
2018-02-10T10:09:52.819Z,1012.55
2018-02-10T10:10:52.811Z,1012.57
2018-02-10T10:11:52.800Z,1012.57
2018-02-10T10:12:52.792Z,1012.57
2018-02-10T10:13:52.784Z,1012.55
2018-02-10T10:14:52.785Z,1012.56
2018-02-10T10:15:52.767Z,1012.59
2018-02-10T10:16:52.755Z,1012.60
2018-02-10T10:17:52.748Z,1012.58
2018-02-10T10:18:52.743Z,1012.58
2018-02-10T10:19:52.735Z,1012.61
2018-02-10T10:20:52.719Z,1012.60
2018-02-10T10:21:52.767Z,1012.62
2018-02-10T10:22:52.702Z,1012.62
2018-02-10T10:23:52.698Z,1012.59
2018-02-10T10:24:52.685Z,1012.63
2018-02-10T10:25:52.676Z,1012.64
2018-02-10T10:26:52.664Z,1012.61
2018-02-10T10:27:52.658Z,1012.63
2018-02-10T10:28:52.649Z,1012.60
2018-02-10T10:29:52.645Z,1012.58
2018-02-10T10:30:52.631Z,1012.59
2018-02-10T10:31:52.624Z,1012.58
2018-02-10T10:32:52.620Z,1012.57
2018-02-10T10:33:52.605Z,1012.53
2018-02-10T10:34:52.597Z,1012.55
2018-02-10T10:35:52.585Z,1012.54
2018-02-10T10:36:52.580Z,1012.51
2018-02-10T10:37:52.579Z,1012.54
2018-02-10T10:38:52.562Z,1012.54
2018-02-10T10:39:52.553Z,1012.56
2018-02-10T10:40:52.547Z,1012.51
2018-02-10T10:41:52.538Z,1012.55
2018-02-10T10:42:52.526Z,1012.53
2018-02-10T10:43:52.516Z,1012.57
2018-02-10T10:44:52.516Z,1012.55
2018-02-10T10:45:52.502Z,1012.52
2018-02-10T10:46:52.499Z,1012.54
2018-02-10T10:47:52.486Z,1012.51
2018-02-10T10:48:52.473Z,1012.48
2018-02-10T10:49:52.468Z,1012.44
2018-02-10T10:50:52.463Z,1012.44
2018-02-10T10:51:52.450Z,1012.39
2018-02-10T10:52:52.442Z,1012.40
2018-02-10T10:53:52.436Z,1012.42
2018-02-10T10:54:52.428Z,1012.38
2018-02-10T10:55:52.417Z,1012.40
2018-02-10T10:56:52.410Z,1012.34
2018-02-10T10:57:52.399Z,1012.36
2018-02-10T10:58:52.396Z,1012.37
2018-02-10T10:59:52.383Z,1012.34
2018-02-10T11:00:52.378Z,1012.33
2018-02-10T11:01:52.369Z,1012.31
2018-02-10T11:02:52.358Z,1012.28
2018-02-10T11:03:52.349Z,1012.28
2018-02-10T11:04:52.344Z,1012.29
2018-02-10T11:05:52.333Z,1012.25
2018-02-10T11:06:52.325Z,1012.18
2018-02-10T11:07:52.318Z,1012.18
2018-02-10T11:08:52.310Z,1012.17
2018-02-10T11:09:52.301Z,1012.15
2018-02-10T11:10:52.287Z,1012.07
2018-02-10T11:11:52.286Z,1012.07
2018-02-10T11:12:52.277Z,1012.08
2018-02-10T11:13:52.267Z,1012.08
2018-02-10T11:14:52.259Z,1012.05
2018-02-10T11:15:52.252Z,1012.07
2018-02-10T11:16:52.243Z,1012.05
2018-02-10T11:17:52.235Z,1012.03
2018-02-10T11:18:52.231Z,1012.02
2018-02-10T11:19:52.218Z,1012.05
2018-02-10T11:20:52.210Z,1012.02
2018-02-10T11:21:52.203Z,1011.99
2018-02-10T11:22:52.194Z,1011.99
2018-02-10T11:23:52.186Z,1011.95
2018-02-10T11:24:52.182Z,1011.94
2018-02-10T11:25:52.207Z,1011.92
2018-02-10T11:26:52.162Z,1011.91
2018-02-10T11:27:52.151Z,1011.86
2018-02-10T11:28:52.145Z,1011.88
2018-02-10T11:29:52.136Z,1011.86
2018-02-10T11:30:52.130Z,1011.90
2018-02-10T11:31:52.120Z,1011.83
2018-02-10T11:32:52.113Z,1011.82
2018-02-10T11:33:52.107Z,1011.83
2018-02-10T11:34:52.096Z,1011.83
2018-02-10T11:35:52.089Z,1011.82
2018-02-10T11:36:52.077Z,1011.80
2018-02-10T11:37:52.071Z,1011.77
2018-02-10T11:38:52.063Z,1011.71
2018-02-10T11:39:52.058Z,1011.76
2018-02-10T11:40:52.048Z,1011.68
2018-02-10T11:41:52.039Z,1011.70
2018-02-10T11:42:52.035Z,1011.68
2018-02-10T11:43:52.025Z,1011.65
2018-02-10T11:44:52.015Z,1011.66
2018-02-10T11:45:52.012Z,1011.61
2018-02-10T11:46:51.999Z,1011.61
2018-02-10T11:47:51.992Z,1011.64
2018-02-10T11:48:51.986Z,1011.60
2018-02-10T11:49:51.979Z,1011.59
2018-02-10T11:50:51.965Z,1011.60
2018-02-10T11:51:51.962Z,1011.62
2018-02-10T11:52:51.952Z,1011.61
2018-02-10T11:53:51.946Z,1011.57
2018-02-10T11:54:51.936Z,1011.56
2018-02-10T11:55:51.930Z,1011.58
2018-02-10T11:56:51.925Z,1011.57
2018-02-10T11:57:51.915Z,1011.59
2018-02-10T11:58:51.907Z,1011.57
2018-02-10T11:59:51.894Z,1011.56
2018-02-10T12:00:51.892Z,1011.53
2018-02-10T12:01:51.886Z,1011.51
2018-02-10T12:02:51.883Z,1011.52
2018-02-10T12:03:51.871Z,1011.52
2018-02-10T12:04:51.868Z,1011.54
2018-02-10T12:05:51.855Z,1011.52